Time;durP1;ratioP1;P1;durP2;ratioP2;P2;SDS_P1;SDS_P2;PMS_P1;PMS_P2;Temp;Humidity;BMP_temperature;BMP_pressure;BME280_temperature;BME280_humidity;BME280_pressure;Samples;Min_cycle;Max_cycle;Signal;HPM_P1;HPM_P2
2022/06/11 00:01:52;;;;;;;8.88;5.58;;;;;;;15.06;99.51;97056.64;1705162;83;21383;-81
2022/06/11 00:04:24;;;;;;;10.15;5.80;;;;;;;15.05;99.45;97052.91;1705296;83;21019;-81
2022/06/11 00:06:54;;;;;;;7.35;5.70;;;;;;;15.04;99.35;97056.53;1700409;83;21116;-81
2022/06/11 00:09:21;;;;;;;6.97;6.22;;;;;;;15.00;99.36;97051.69;1713987;83;20971;-81
2022/06/11 00:11:47;;;;;;;5.70;5.03;;;;;;;14.97;99.38;97053.39;1725680;82;21328;-80
2022/06/11 00:14:13;;;;;;;8.35;5.40;;;;;;;14.94;99.42;97052.44;1720230;82;21056;-81
2022/06/11 00:16:38;;;;;;;5.53;4.95;;;;;;;14.91;99.51;97047.59;1695304;84;20961;-81
2022/06/11 00:19:06;;;;;;;8.80;4.87;;;;;;;14.89;99.68;97053.52;1713131;83;20933;-81
2022/06/11 00:21:35;;;;;;;6.20;4.60;;;;;;;14.89;99.89;97058.76;1709500;83;21071;-80
2022/06/11 00:24:00;;;;;;;6.92;4.78;;;;;;;14.91;99.88;97053.33;1708318;83;20966;-80
2022/06/11 00:26:26;;;;;;;8.75;4.70;;;;;;;14.93;99.78;97056.56;1709024;83;21090;-80
2022/06/11 00:28:52;;;;;;;7.22;5.22;;;;;;;14.93;99.66;97056.05;1726550;82;20929;-80
2022/06/11 00:31:18;;;;;;;11.35;5.08;;;;;;;14.93;99.47;97056.05;1725455;82;21000;-81
2022/06/11 00:33:44;;;;;;;18.30;4.90;;;;;;;14.92;99.48;97056.25;1708280;83;20976;-81
2022/06/11 00:36:10;;;;;;;6.62;5.05;;;;;;;14.90;99.54;97059.56;1708065;83;21413;-80
2022/06/11 00:38:37;;;;;;;6.92;4.85;;;;;;;14.90;99.65;97055.14;1708225;83;21031;-80
2022/06/11 00:41:03;;;;;;;9.03;4.75;;;;;;;14.90;99.64;97059.06;1708161;83;21338;-81
2022/06/11 00:43:29;;;;;;;7.05;4.80;;;;;;;14.90;99.66;97059.06;1726490;82;20969;-81
2022/06/11 00:46:01;;;;;;;9.25;5.22;;;;;;;14.91;99.64;97052.02;1726536;82;20976;-80
2022/06/11 00:48:39;;;;;;;6.03;4.90;;;;;;;14.93;99.58;97053.94;1716388;83;20953;-81
2022/06/11 00:51:18;;;;;;;7.37;5.53;;;;;;;14.89;99.55;97049.59;1702860;83;21377;-81
2022/06/11 00:53:49;;;;;;;6.35;5.65;;;;;;;14.88;99.57;97050.60;1726514;82;21307;-81
2022/06/11 00:56:21;;;;;;;12.20;5.90;;;;;;;14.87;99.58;97054.72;1726261;82;21021;-81
2022/06/11 00:58:49;;;;;;;14.33;6.00;;;;;;;14.84;99.63;97049.88;1708737;83;22028;-81
2022/06/11 01:01:17;;;;;;;16.10;6.05;;;;;;;14.81;99.71;97048.96;1711594;83;20948;-81
2022/06/11 01:03:45;;;;;;;9.90;5.78;;;;;;;14.80;99.87;97046.00;1725961;82;20972;-81
2022/06/11 01:06:26;;;;;;;6.45;5.42;;;;;;;14.79;99.92;97049.13;1726037;82;21048;-81
2022/06/11 01:09:24;;;;;;;6.78;5.33;;;;;;;14.79;99.89;97052.23;1708365;83;21016;-81
2022/06/11 01:12:14;;;;;;;7.47;5.33;;;;;;;14.77;99.79;97050.32;1705912;83;21032;-81
2022/06/11 01:15:08;;;;;;;10.55;5.00;;;;;;;14.75;99.75;97047.89;1705817;83;21090;-81
2022/06/11 01:17:58;;;;;;;8.40;5.03;;;;;;;14.73;99.81;97043.36;1702603;83;20993;-81
2022/06/11 01:20:45;;;;;;;9.48;5.33;;;;;;;14.70;99.89;97046.36;1710866;83;21432;-81
2022/06/11 01:23:31;;;;;;;8.50;5.22;;;;;;;14.67;100.00;97034.98;1701954;83;20988;-81
2022/06/11 01:26:31;;;;;;;18.25;5.35;;;;;;;14.66;100.00;97035.98;1724858;82;20974;-81
2022/06/11 01:29:32;;;;;;;6.70;4.87;;;;;;;14.63;100.00;97035.84;1725607;82;21356;-81
2022/06/11 01:32:40;;;;;;;8.40;5.80;;;;;;;14.60;100.00;97032.30;1704909;83;21447;-81
2022/06/11 01:35:35;;;;;;;6.78;4.92;;;;;;;14.57;100.00;97025.34;1707799;83;21047;-80
2022/06/11 01:38:24;;;;;;;8.80;5.47;;;;;;;14.53;100.00;97021.50;1688953;84;21016;-80
2022/06/11 01:41:02;;;;;;;11.15;5.35;;;;;;;14.49;100.00;97024.20;1697424;83;21070;-79
2022/06/11 01:43:38;;;;;;;8.08;4.97;;;;;;;14.45;100.00;97030.78;1676001;84;21381;-80
2022/06/11 01:46:10;;;;;;;7.87;5.20;;;;;;;14.40;100.00;97029.52;1726012;82;21008;-79
2022/06/11 01:48:35;;;;;;;7.03;5.62;;;;;;;14.37;100.00;97031.22;1714441;83;21015;-80
2022/06/11 01:51:28;;;;;;;6.10;5.50;;;;;;;14.34;100.00;97043.86;1726315;82;20979;-80
2022/06/11 01:54:15;;;;;;;17.05;5.75;;;;;;;14.31;100.00;97043.71;1691502;82;21048;-80
2022/06/11 01:57:16;;;;;;;7.10;5.15;;;;;;;14.33;100.00;97046.17;1727802;82;20978;-80
2022/06/11 01:59:59;;;;;;;7.33;5.92;;;;;;;14.33;100.00;97039.63;1714151;82;20958;-81
2022/06/11 02:02:49;;;;;;;9.98;6.28;;;;;;;14.29;100.00;97037.88;1727253;82;21207;-80
2022/06/11 02:05:37;;;;;;;12.58;6.70;;;;;;;14.29;100.00;97042.29;1707650;83;20968;-80
2022/06/11 02:08:26;;;;;;;13.62;6.12;;;;;;;14.29;100.00;97045.71;1707300;83;21634;-80
2022/06/11 02:11:18;;;;;;;11.40;6.15;;;;;;;14.30;100.00;97043.41;1711871;83;21010;-80
2022/06/11 02:13:58;;;;;;;9.58;7.05;;;;;;;14.33;100.00;97044.36;1714561;83;20998;-80
2022/06/11 02:16:35;;;;;;;11.60;6.85;;;;;;;14.38;100.00;97049.02;1673737;84;21019;-81
2022/06/11 02:19:05;;;;;;;11.10;6.30;;;;;;;14.41;100.00;97052.05;1706399;83;20970;-81
2022/06/11 02:21:36;;;;;;;8.95;7.05;;;;;;;14.44;100.00;97053.50;1703797;83;20986;-80
2022/06/11 02:24:24;;;;;;;8.98;6.37;;;;;;;14.48;100.00;97052.16;1706084;83;21016;-80
2022/06/11 02:26:53;;;;;;;9.03;6.97;;;;;;;14.51;100.00;97051.77;1714970;83;21040;-80
2022/06/11 02:29:21;;;;;;;8.90;7.10;;;;;;;14.54;100.00;97053.19;1703861;83;20974;-80
2022/06/11 02:31:55;;;;;;;9.55;8.25;;;;;;;14.55;100.00;97049.08;1702395;83;20994;-80
2022/06/11 02:34:22;;;;;;;9.68;7.87;;;;;;;14.59;100.00;97055.53;1705293;83;21032;-81
2022/06/11 02:37:05;;;;;;;12.05;8.45;;;;;;;14.61;100.00;97054.84;1676616;84;21022;-80
2022/06/11 02:39:35;;;;;;;13.70;8.60;;;;;;;14.64;100.00;97056.27;1705081;83;21978;-80
2022/06/11 02:42:03;;;;;;;11.12;8.15;;;;;;;14.67;100.00;97054.09;1702081;83;21034;-81
2022/06/11 02:44:29;;;;;;;10.38;8.85;;;;;;;14.69;100.00;97054.71;1704935;83;21364;-80
2022/06/11 02:46:55;;;;;;;9.40;8.50;;;;;;;14.73;100.00;97058.25;1720804;83;20945;-80
2022/06/11 02:49:25;;;;;;;10.32;9.33;;;;;;;14.76;100.00;97059.17;1670404;85;20920;-80
2022/06/11 02:51:53;;;;;;;14.13;9.95;;;;;;;14.79;100.00;97060.09;1670902;84;21345;-80
2022/06/11 02:54:19;;;;;;;11.43;10.20;;;;;;;14.82;100.00;97059.73;1669788;85;21433;-80
2022/06/11 02:56:46;;;;;;;13.78;9.98;;;;;;;14.84;100.00;97059.03;1716552;83;21061;-81
2022/06/11 02:59:11;;;;;;;12.60;11.30;;;;;;;14.84;100.00;97057.23;1707209;83;21313;-80
2022/06/11 03:01:37;;;;;;;13.20;11.88;;;;;;;14.85;100.00;97066.69;1703565;83;20978;-80
2022/06/11 03:04:03;;;;;;;14.40;12.40;;;;;;;14.84;100.00;97069.50;1670816;85;20991;-80
2022/06/11 03:06:29;;;;;;;15.15;12.88;;;;;;;14.84;100.00;97071.61;1657467;85;21332;-80
2022/06/11 03:08:57;;;;;;;14.18;12.53;;;;;;;14.87;100.00;97073.84;1699895;83;21033;-80
2022/06/11 03:11:23;;;;;;;16.27;12.78;;;;;;;14.89;100.00;97076.27;1703814;83;21318;-80
2022/06/11 03:13:50;;;;;;;17.35;12.30;;;;;;;14.90;100.00;97081.80;1673437;84;20976;-80
2022/06/11 03:16:16;;;;;;;19.57;13.68;;;;;;;14.94;100.00;97083.84;1670959;84;21086;-80
2022/06/11 03:18:42;;;;;;;14.45;12.95;;;;;;;14.97;100.00;97075.63;1672025;85;21078;-80
2022/06/11 03:21:08;;;;;;;15.18;13.22;;;;;;;15.00;100.00;97081.78;1674045;85;20963;-81
2022/06/11 03:23:33;;;;;;;15.20;12.58;;;;;;;15.00;100.00;97075.74;1676102;84;21514;-81
2022/06/11 03:25:59;;;;;;;21.82;13.08;;;;;;;15.01;100.00;97085.20;1673973;85;21058;-81
2022/06/11 03:28:27;;;;;;;15.80;12.33;;;;;;;15.00;100.00;97083.09;1665004;84;20971;-81
2022/06/11 03:30:53;;;;;;;13.83;11.63;;;;;;;15.04;100.00;97082.70;1680167;84;20987;-81
2022/06/11 03:33:19;;;;;;;15.68;10.23;;;;;;;15.09;100.00;97085.54;1662671;84;20982;-81
2022/06/11 03:35:46;;;;;;;16.02;10.75;;;;;;;15.11;100.00;97083.03;1673346;85;20982;-81
2022/06/11 03:38:12;;;;;;;11.22;10.13;;;;;;;15.16;100.00;97082.48;1674109;84;21298;-81
2022/06/11 03:40:38;;;;;;;11.57;9.68;;;;;;;15.19;100.00;97080.27;1671697;85;20975;-80
2022/06/11 03:43:04;;;;;;;10.65;9.35;;;;;;;15.23;100.00;97085.92;1673708;85;20940;-81
2022/06/11 03:45:30;;;;;;;11.30;9.25;;;;;;;15.25;100.00;97087.34;1671629;85;21340;-81
2022/06/11 03:47:56;;;;;;;9.28;8.25;;;;;;;15.29;99.86;97088.59;1685475;84;20978;-81
2022/06/11 03:50:26;;;;;;;9.18;8.25;;;;;;;15.30;99.49;97098.06;1671428;85;20997;-81
2022/06/11 03:52:52;;;;;;;10.78;9.65;;;;;;;15.31;99.57;97096.25;1679932;84;21035;-81
2022/06/11 03:55:19;;;;;;;10.72;9.70;;;;;;;15.33;99.31;97094.75;1659289;86;21386;-81
2022/06/11 03:57:45;;;;;;;10.60;9.60;;;;;;;15.30;99.27;97091.52;1685421;85;21047;-82
2022/06/11 04:00:14;;;;;;;10.80;9.80;;;;;;;15.31;99.50;97097.06;1688873;83;20963;-82
2022/06/11 04:02:39;;;;;;;9.93;8.88;;;;;;;15.34;99.34;97096.36;1671628;85;20956;-81
2022/06/11 04:05:06;;;;;;;10.48;9.25;;;;;;;15.34;99.32;97093.23;1687634;83;20995;-81
2022/06/11 04:07:32;;;;;;;10.68;9.58;;;;;;;15.37;99.29;97093.34;1687589;84;20951;-81
2022/06/11 04:09:58;;;;;;;12.10;8.90;;;;;;;15.39;99.37;97096.08;1690006;83;20965;-81
2022/06/11 04:12:24;;;;;;;14.40;11.60;;;;;;;15.45;99.58;97090.05;1670917;85;21003;-81
2022/06/11 04:14:50;;;;;;;14.55;13.03;;;;;;;15.50;99.53;97081.13;1673234;83;20999;-81
2022/06/11 04:17:30;;;;;;;16.93;13.88;;;;;;;15.55;99.58;97078.72;1709736;83;20987;-81
2022/06/11 04:19:56;;;;;;;14.85;13.35;;;;;;;15.59;99.75;97079.97;1725783;82;21321;-81
2022/06/11 04:22:22;;;;;;;14.63;13.08;;;;;;;15.63;99.57;97079.60;1726039;82;20933;-82
2022/06/11 04:24:48;;;;;;;15.63;13.80;;;;;;;15.69;99.75;97081.42;1725491;82;20943;-81
2022/06/11 04:27:15;;;;;;;13.43;12.10;;;;;;;15.69;99.29;97083.54;1726200;82;21029;-81
2022/06/11 04:29:46;;;;;;;14.00;11.43;;;;;;;15.69;99.14;97077.49;1725854;82;21058;-81
2022/06/11 04:32:15;;;;;;;20.57;12.10;;;;;;;15.68;98.85;97081.13;1724464;82;20928;-81
2022/06/11 04:34:43;;;;;;;14.78;11.03;;;;;;;15.66;98.83;97075.27;1725496;82;20962;-81
2022/06/11 04:37:13;;;;;;;14.05;11.00;;;;;;;15.65;98.99;97073.66;1725891;82;20928;-81
2022/06/11 04:39:38;;;;;;;14.58;10.58;;;;;;;15.64;98.95;97072.85;1726173;82;20982;-81
2022/06/11 04:42:04;;;;;;;16.20;10.53;;;;;;;15.66;99.08;97075.27;1717109;82;20980;-81
2022/06/11 04:44:30;;;;;;;13.50;10.23;;;;;;;15.64;99.21;97074.67;1720238;82;20956;-82
2022/06/11 04:46:56;;;;;;;15.18;12.85;;;;;;;15.63;99.15;97080.41;1724866;82;20984;-81
2022/06/11 04:49:22;;;;;;;12.07;10.13;;;;;;;15.65;99.18;97083.63;1726346;82;21455;-81
2022/06/11 04:51:47;;;;;;;14.30;10.95;;;;;;;15.65;99.40;97086.25;1725625;82;20983;-81
2022/06/11 04:54:14;;;;;;;13.10;9.85;;;;;;;15.68;99.55;97089.78;1694022;84;21004;-81
2022/06/11 04:56:42;;;;;;;11.22;7.72;;;;;;;15.68;99.20;97096.84;1727541;83;21034;-81
2022/06/11 04:59:08;;;;;;;10.03;7.50;;;;;;;15.66;99.45;97096.23;1684580;84;21397;-81
2022/06/11 05:01:34;;;;;;;8.75;6.15;;;;;;;15.69;99.82;97097.14;1717597;82;21065;-81
2022/06/11 05:03:59;;;;;;;8.83;7.28;;;;;;;15.70;99.69;97099.56;1722725;82;21277;-81
2022/06/11 05:06:29;;;;;;;12.78;6.60;;;;;;;15.72;100.00;97096.74;1722516;82;21728;-81
2022/06/11 05:08:54;;;;;;;7.03;5.40;;;;;;;15.74;99.50;97098.16;1716880;82;21005;-81
2022/06/11 05:11:20;;;;;;;8.00;6.10;;;;;;;15.74;99.85;97095.54;1718208;82;20948;-81
2022/06/11 05:13:47;;;;;;;5.55;4.47;;;;;;;15.75;100.00;97099.77;1710454;83;21389;-81
2022/06/11 05:16:15;;;;;;;4.70;3.75;;;;;;;15.75;99.89;97102.39;1725161;82;20994;-81
2022/06/11 05:18:40;;;;;;;7.22;4.37;;;;;;;15.75;99.86;97104.20;1734803;82;21003;-81
2022/06/11 05:21:06;;;;;;;4.50;3.77;;;;;;;15.72;99.61;97100.17;1725540;82;20962;-81
2022/06/11 05:23:32;;;;;;;7.92;3.50;;;;;;;15.73;99.48;97100.48;1716048;82;20971;-81
2022/06/11 05:25:58;;;;;;;5.53;3.62;;;;;;;15.75;100.00;97098.97;1717577;82;21383;-81
2022/06/11 05:28:28;;;;;;;4.75;3.50;;;;;;;15.77;100.00;97095.64;1724981;82;20935;-81
2022/06/11 05:30:54;;;;;;;4.42;3.85;;;;;;;15.79;100.00;97101.52;1728467;82;21383;-81
2022/06/11 05:33:21;;;;;;;7.85;3.87;;;;;;;15.78;100.00;97103.34;1729556;82;21097;-81
2022/06/11 05:35:47;;;;;;;4.25;2.90;;;;;;;15.80;100.00;97102.63;1729051;82;21002;-81
2022/06/11 05:38:17;;;;;;;5.42;2.95;;;;;;;15.81;98.18;97099.51;1729969;82;20935;-81
2022/06/11 05:40:44;;;;;;;7.87;3.25;;;;;;;15.81;99.88;97104.75;1722336;82;20965;-80
2022/06/11 05:43:10;;;;;;;4.12;3.10;;;;;;;15.80;99.55;97111.80;1728037;82;20923;-81
2022/06/11 05:45:46;;;;;;;5.05;3.12;;;;;;;15.84;99.59;97110.91;1736653;82;20930;-81
2022/06/11 05:48:12;;;;;;;5.72;3.10;;;;;;;15.83;99.07;97113.22;1725387;82;21371;-81
2022/06/11 05:50:43;;;;;;;5.90;3.27;;;;;;;15.84;99.36;97109.09;1730448;82;20965;-81
2022/06/11 05:53:09;;;;;;;4.35;3.10;;;;;;;15.85;99.07;97114.63;1737390;82;21001;-81
2022/06/11 05:55:38;;;;;;;4.65;3.30;;;;;;;15.88;98.17;97108.99;1727845;82;21012;-81
2022/06/11 05:58:06;;;;;;;5.30;4.17;;;;;;;15.95;98.69;97108.22;1727522;82;20995;-80
2022/06/11 06:00:32;;;;;;;4.95;3.70;;;;;;;15.97;96.71;97114.88;1725136;82;21503;-80
2022/06/11 06:02:58;;;;;;;3.02;2.60;;;;;;;16.01;98.43;97114.78;1710024;83;20959;-82
2022/06/11 06:05:27;;;;;;;3.83;2.52;;;;;;;16.03;93.33;97118.52;1729725;82;20974;-80
2022/06/11 06:07:53;;;;;;;4.95;2.65;;;;;;;16.04;95.38;97114.88;1738440;82;21419;-80
2022/06/11 06:10:19;;;;;;;5.42;2.87;;;;;;;16.07;95.72;97118.41;1728492;82;21045;-79
2022/06/11 06:12:45;;;;;;;5.62;3.02;;;;;;;16.09;97.10;97119.02;1724920;82;21040;-79
2022/06/11 06:15:21;;;;;;;5.45;3.10;;;;;;;16.08;97.33;97121.34;1700865;83;20987;-80
2022/06/11 06:17:50;;;;;;;6.45;3.20;;;;;;;16.07;94.39;97123.66;1680401;85;21064;-80
2022/06/11 06:20:16;;;;;;;4.20;2.65;;;;;;;16.10;96.46;97116.70;1670849;85;21112;-80
2022/06/11 06:22:42;;;;;;;3.35;2.75;;;;;;;16.14;95.75;97123.99;1670001;85;21524;-80
2022/06/11 06:25:10;;;;;;;5.25;2.30;;;;;;;16.16;95.89;97123.29;1671283;85;21055;-80
2022/06/11 06:27:36;;;;;;;4.67;2.62;;;;;;;16.20;96.25;97129.74;1668026;85;21468;-79
2022/06/11 06:30:03;;;;;;;4.08;3.12;;;;;;;16.26;94.09;97133.38;1670326;85;21075;-80
2022/06/11 06:32:30;;;;;;;3.58;3.20;;;;;;;16.31;92.07;97128.87;1668502;85;20996;-80
2022/06/11 06:34:59;;;;;;;30.15;9.38;;;;;;;16.36;94.38;97130.38;1671557;85;20978;-79
2022/06/11 06:37:32;;;;;;;28.05;8.98;;;;;;;16.37;93.35;97130.17;1672986;85;21529;-80
2022/06/11 06:39:58;;;;;;;18.20;7.00;;;;;;;16.42;93.25;97134.31;1671663;85;21425;-79
2022/06/11 06:42:24;;;;;;;33.83;12.25;;;;;;;16.44;92.11;97133.63;1678225;84;20956;-80
2022/06/11 06:44:49;;;;;;;7.58;3.45;;;;;;;16.49;92.97;97137.77;1671777;85;20944;-80
2022/06/11 06:47:15;;;;;;;3.40;2.98;;;;;;;16.60;92.70;97131.62;1675190;85;21365;-80
2022/06/11 06:49:41;;;;;;;12.33;4.30;;;;;;;16.64;93.18;97141.52;1673522;85;20976;-80
2022/06/11 06:52:08;;;;;;;4.65;3.33;;;;;;;16.68;91.69;97137.50;1677016;85;21033;-80
2022/06/11 06:54:36;;;;;;;5.25;3.00;;;;;;;16.74;92.54;97135.37;1673421;84;21023;-80
2022/06/11 06:57:02;;;;;;;3.52;3.20;;;;;;;16.80;90.05;97139.83;1671380;85;21334;-81
2022/06/11 06:59:27;;;;;;;5.05;3.17;;;;;;;16.89;89.27;97149.61;1657813;85;20972;-80
2022/06/11 07:01:53;;;;;;;7.42;3.33;;;;;;;16.99;89.24;97143.95;1673886;85;21092;-79
2022/06/11 07:04:19;;;;;;;6.20;3.50;;;;;;;16.95;89.14;97149.32;1681456;85;21354;-80
2022/06/11 07:06:44;;;;;;;6.42;3.98;;;;;;;16.91;87.91;97149.40;1676901;85;21038;-80
2022/06/11 07:09:10;;;;;;;4.37;3.70;;;;;;;16.92;87.46;97153.16;1676828;85;20974;-80
2022/06/11 07:11:36;;;;;;;4.97;3.33;;;;;;;17.00;87.37;97154.76;1670050;85;21102;-81
2022/06/11 07:14:03;;;;;;;4.65;3.25;;;;;;;17.12;89.68;97153.64;1668887;85;21592;-80
2022/06/11 07:16:32;;;;;;;3.20;2.90;;;;;;;17.22;89.12;97156.64;1687348;83;21005;-80
2022/06/11 07:19:02;;;;;;;6.53;3.80;;;;;;;17.33;88.41;97159.46;1695938;84;20975;-81
2022/06/11 07:21:35;;;;;;;4.95;3.45;;;;;;;17.39;87.33;97152.06;1693270;84;20962;-81
2022/06/11 07:24:13;;;;;;;3.80;3.42;;;;;;;17.52;86.62;97158.30;1687744;84;21022;-81
2022/06/11 07:26:43;;;;;;;5.75;4.00;;;;;;;17.62;86.40;97160.81;1683523;84;21477;-81
2022/06/11 07:29:28;;;;;;;4.15;3.67;;;;;;;17.77;86.23;97156.65;1689312;84;21002;-82
2022/06/11 07:31:58;;;;;;;3.45;3.15;;;;;;;17.92;84.24;97165.59;1688250;84;21020;-81
2022/06/11 07:34:24;;;;;;;5.97;3.47;;;;;;;18.00;80.62;97160.89;1684673;84;21014;-81
2022/06/11 07:36:50;;;;;;;5.60;3.80;;;;;;;18.00;83.23;97166.14;1692793;84;20966;-82
2022/06/11 07:39:15;;;;;;;5.15;4.20;;;;;;;17.96;81.70;97170.22;1688912;84;21290;-81
2022/06/11 07:41:42;;;;;;;5.12;4.05;;;;;;;17.85;82.39;97174.00;1685702;84;20943;-81
2022/06/11 07:44:08;;;;;;;4.75;3.83;;;;;;;17.75;83.57;97178.40;1688514;84;21392;-82
2022/06/11 07:46:34;;;;;;;4.17;3.77;;;;;;;17.70;83.76;97176.37;1697082;84;21073;-81
2022/06/11 07:48:59;;;;;;;4.08;3.27;;;;;;;17.66;82.90;97177.77;1700244;84;20946;-81
2022/06/11 07:51:25;;;;;;;3.75;3.30;;;;;;;17.62;81.22;97177.89;1691644;84;21028;-81
2022/06/11 07:53:51;;;;;;;4.90;3.58;;;;;;;17.71;82.01;97174.55;1699009;84;20982;-81
2022/06/11 07:56:17;;;;;;;3.55;2.22;;;;;;;17.83;82.85;97171.58;1694759;84;20891;-81
2022/06/11 07:58:43;;;;;;;4.25;2.33;;;;;;;17.85;75.84;97171.37;1688107;84;21046;-81
2022/06/11 08:01:09;;;;;;;2.90;2.30;;;;;;;17.87;77.17;97170.65;1678128;84;21436;-81
2022/06/11 08:03:38;;;;;;;5.12;2.35;;;;;;;18.05;78.75;97171.28;1689640;84;21477;-80
2022/06/11 08:06:07;;;;;;;4.45;3.15;;;;;;;18.12;79.13;97174.70;1692992;84;21021;-81
2022/06/11 08:08:34;;;;;;;3.95;3.10;;;;;;;18.23;77.18;97161.70;1690819;84;21050;-81
2022/06/11 08:11:00;;;;;;;4.05;2.80;;;;;;;18.39;79.36;97164.34;1684699;84;20975;-81
2022/06/11 08:13:26;;;;;;;3.05;2.27;;;;;;;18.49;78.41;97165.98;1682398;84;21122;-80
2022/06/11 08:15:54;;;;;;;3.72;2.60;;;;;;;18.46;78.23;97177.45;1684961;83;21034;-81
2022/06/11 08:18:22;;;;;;;3.00;2.33;;;;;;;18.34;76.53;97166.78;1686275;84;21054;-81
2022/06/11 08:20:49;;;;;;;4.78;2.62;;;;;;;18.24;77.49;97163.82;1685404;84;21034;-81
2022/06/11 08:23:15;;;;;;;4.20;2.77;;;;;;;18.10;77.08;97167.53;1677987;84;20966;-81
2022/06/11 08:25:41;;;;;;;3.85;3.15;;;;;;;18.09;77.49;97171.98;1683813;84;21378;-81
2022/06/11 08:28:07;;;;;;;5.95;3.08;;;;;;;17.96;77.78;97172.84;1683670;84;21062;-81
2022/06/11 08:30:34;;;;;;;5.45;2.30;;;;;;;17.98;76.34;97176.58;1670987;85;21033;-81
2022/06/11 08:33:00;;;;;;;4.35;3.00;;;;;;;18.19;78.09;97170.20;1684098;84;21035;-81
2022/06/11 08:35:28;;;;;;;4.45;2.50;;;;;;;18.26;76.01;97172.30;1691904;84;21353;-81
2022/06/11 08:37:54;;;;;;;2.37;2.10;;;;;;;18.19;77.05;97168.89;1680481;84;21062;-81
2022/06/11 08:40:34;;;;;;;2.98;2.42;;;;;;;18.13;75.84;97169.73;1682566;84;21349;-81
2022/06/11 08:43:26;;;;;;;3.75;2.30;;;;;;;18.03;76.81;97168.05;1683635;84;21007;-81
2022/06/11 08:46:00;;;;;;;3.00;2.55;;;;;;;17.88;77.58;97165.69;1683488;84;20980;-81
2022/06/11 08:48:44;;;;;;;3.10;2.80;;;;;;;17.83;75.40;97164.20;1669428;85;21424;-82
2022/06/11 08:51:33;;;;;;;3.60;2.40;;;;;;;17.78;77.43;97175.34;1683215;84;21609;-81
2022/06/11 08:54:04;;;;;;;2.30;1.70;;;;;;;17.87;75.09;97171.96;1682701;84;20991;-82
2022/06/11 08:56:53;;;;;;;3.17;1.87;;;;;;;17.79;75.67;97175.64;1682155;84;21086;-81
2022/06/11 08:59:57;;;;;;;2.33;2.00;;;;;;;17.71;74.75;97182.43;1683035;84;21850;-81
2022/06/11 09:03:01;;;;;;;3.17;2.45;;;;;;;17.97;74.95;97171.83;1681897;84;21360;-81
2022/06/11 09:06:16;;;;;;;3.75;2.62;;;;;;;17.97;74.40;97172.34;1683161;84;21005;-82
2022/06/11 09:09:24;;;;;;;2.55;2.35;;;;;;;18.33;74.03;97170.94;1676267;84;20968;-81
2022/06/11 09:12:33;;;;;;;3.70;2.25;;;;;;;18.55;73.30;97166.47;1681715;84;20946;-82
2022/06/11 09:15:30;;;;;;;4.10;2.35;;;;;;;18.65;72.74;97168.64;1668770;84;21011;-82
2022/06/11 09:18:09;;;;;;;3.72;2.55;;;;;;;18.87;72.32;97169.08;1699487;83;20971;-82
2022/06/11 09:20:53;;;;;;;4.20;2.70;;;;;;;19.13;69.49;97160.96;1725023;82;21039;-82
2022/06/11 09:23:36;;;;;;;4.85;2.95;;;;;;;19.45;70.19;97159.54;1723898;82;20958;-82
2022/06/11 09:26:25;;;;;;;6.65;3.22;;;;;;;19.75;67.99;97162.29;1683903;83;20970;-82
2022/06/11 09:29:14;;;;;;;3.83;2.75;;;;;;;19.97;68.89;97156.84;1704459;83;21451;-82
2022/06/11 09:32:14;;;;;;;4.17;2.50;;;;;;;20.28;68.62;97151.06;1703519;83;21007;-82
2022/06/11 09:34:56;;;;;;;4.58;2.58;;;;;;;20.39;68.42;97149.80;1699113;83;21046;-82
2022/06/11 09:37:47;;;;;;;4.15;2.62;;;;;;;20.55;66.58;97145.73;1725024;82;21045;-82
2022/06/11 09:40:29;;;;;;;4.55;2.80;;;;;;;20.63;64.21;97151.99;1711057;82;22049;-82
2022/06/11 09:43:24;;;;;;;3.40;2.47;;;;;;;20.54;63.69;97151.24;1740193;82;21015;-82
2022/06/11 09:46:01;;;;;;;5.55;3.08;;;;;;;20.39;64.01;97156.39;1721751;83;21342;-82
2022/06/11 09:48:51;;;;;;;3.40;2.42;;;;;;;20.37;65.07;97159.77;1719648;83;21054;-83
2022/06/11 09:51:48;;;;;;;2.67;2.25;;;;;;;20.54;64.94;97155.20;1723036;83;21049;-82
2022/06/11 09:54:43;;;;;;;5.10;2.75;;;;;;;20.62;64.68;97154.86;1713757;83;20959;-82
2022/06/11 09:57:42;;;;;;;3.45;2.52;;;;;;;20.63;63.79;97148.55;1708525;83;20975;-82
2022/06/11 10:00:30;;;;;;;3.60;2.27;;;;;;;20.62;61.83;97133.73;1710025;83;20953;-82
2022/06/11 10:03:30;;;;;;;3.00;2.02;;;;;;;20.59;61.32;97139.48;1709496;83;20979;-83
2022/06/11 10:06:12;;;;;;;4.20;2.30;;;;;;;20.62;60.40;97139.02;1705855;83;21066;-82
2022/06/11 10:08:59;;;;;;;2.17;1.55;;;;;;;20.75;65.24;97136.17;1702918;83;21347;-83
2022/06/11 10:11:44;;;;;;;4.17;2.10;;;;;;;20.85;60.84;97137.75;1704777;83;21360;-81
2022/06/11 10:14:34;;;;;;;3.22;2.10;;;;;;;20.85;61.54;97135.63;1692646;83;21363;-83
2022/06/11 10:17:17;;;;;;;4.42;2.25;;;;;;;20.78;59.48;97130.95;1715593;83;21030;-82
2022/06/11 10:20:12;;;;;;;2.87;1.70;;;;;;;20.83;60.87;97133.73;1709099;83;20928;-82
2022/06/11 10:23:16;;;;;;;2.37;1.62;;;;;;;20.81;61.67;97131.30;1724794;82;20955;-83
2022/06/11 10:25:51;;;;;;;3.37;1.98;;;;;;;20.83;60.25;97134.54;1723041;82;21015;-83
2022/06/11 10:28:34;;;;;;;2.98;1.70;;;;;;;20.87;58.38;97124.31;1693273;83;21067;-83
2022/06/11 10:31:25;;;;;;;3.05;1.70;;;;;;;20.91;57.72;97122.81;1711810;83;20948;-85
2022/06/11 10:34:05;;;;;;;1.70;1.55;;;;;;;20.96;59.64;97125.05;1712785;83;20986;-84
2022/06/11 10:36:39;;;;;;;;;;;;;;;20.98;59.57;97116.38;1717045;83;21074;-85
2022/06/11 10:39:22;;;;;;;2.90;1.62;;;;;;;21.06;59.47;97119.20;1714158;83;20111;-84
2022/06/11 10:42:17;;;;;;;2.40;1.90;;;;;;;21.06;58.17;97114.44;1698806;83;21029;-84
2022/06/11 10:44:50;;;;;;;1.55;1.45;;;;;;;21.07;54.75;97113.41;1711188;83;21051;-84
2022/06/11 10:47:25;;;;;;;1.75;1.30;;;;;;;21.03;56.20;97105.14;1731487;82;21034;-84
2022/06/11 10:50:16;;;;;;;2.85;1.50;;;;;;;21.09;55.48;97110.01;1750221;82;21054;-84
2022/06/11 10:52:59;;;;;;;1.82;1.42;;;;;;;21.10;57.26;97108.45;1731571;82;21452;-84
2022/06/11 10:55:46;;;;;;;3.12;1.80;;;;;;;21.23;58.30;97114.03;1723034;83;21008;-84
2022/06/11 10:58:41;;;;;;;1.90;1.60;;;;;;;21.36;57.20;97105.89;1701033;82;21040;-85
2022/06/11 11:01:13;;;;;;;2.65;1.50;;;;;;;21.35;54.88;97104.28;1720550;82;21021;-85
2022/06/11 11:03:47;;;;;;;3.52;1.50;;;;;;;21.32;55.24;97110.04;1700599;83;20937;-85
2022/06/11 11:06:33;;;;;;;3.37;1.82;;;;;;;21.28;55.20;97103.59;1714907;83;20972;-85
2022/06/11 11:09:09;;;;;;;2.15;1.42;;;;;;;21.28;57.43;97111.52;1709686;83;20968;-85
2022/06/11 11:11:48;;;;;;;2.20;1.52;;;;;;;21.28;55.86;97102.27;1687921;84;21252;-85
2022/06/11 11:14:27;;;;;;;2.45;1.98;;;;;;;21.40;59.02;97091.16;1725295;82;21024;-85
2022/06/11 11:16:53;;;;;;;2.60;1.70;;;;;;;21.49;57.24;97097.70;1726662;82;21066;-85
2022/06/11 11:19:26;;;;;;;1.52;1.40;;;;;;;21.54;56.37;97095.16;1734591;82;21008;-84
2022/06/11 11:21:58;;;;;;;3.15;1.40;;;;;;;21.59;54.52;97091.80;1734698;82;20957;-85
2022/06/11 11:24:44;;;;;;;1.62;1.20;;;;;;;21.63;55.28;97092.13;1716146;83;20979;-85
2022/06/11 11:27:22;;;;;;;1.40;1.05;;;;;;;21.72;55.50;97086.77;1712117;83;21003;-85
2022/06/11 11:29:55;;;;;;;1.55;1.27;;;;;;;21.79;53.91;97087.42;1747404;82;21327;-85
2022/06/11 11:32:37;;;;;;;2.05;1.32;;;;;;;21.84;57.92;97082.25;1705778;82;21017;-85
2022/06/11 11:35:28;;;;;;;2.50;1.27;;;;;;;21.88;59.77;97083.38;1726653;82;21421;-85
2022/06/11 11:38:03;;;;;;;2.40;1.77;;;;;;;21.86;55.60;97080.17;1704513;83;20943;-85
2022/06/11 11:40:35;;;;;;;1.72;1.30;;;;;;;21.87;55.06;97080.45;1713018;83;20950;-84
2022/06/11 11:43:10;;;;;;;2.72;1.42;;;;;;;21.92;55.90;97079.22;1730956;83;20975;-85
2022/06/11 11:46:04;;;;;;;2.52;1.15;;;;;;;21.94;55.69;97079.78;1713758;83;21014;-84
2022/06/11 11:48:48;;;;;;;2.10;1.02;;;;;;;21.96;56.25;97082.98;1717422;82;20930;-85
2022/06/11 11:51:30;;;;;;;1.90;1.10;;;;;;;21.98;53.49;97080.13;1707854;83;21541;-85
2022/06/11 11:54:13;;;;;;;2.20;1.12;;;;;;;22.01;53.77;97071.72;1726051;82;20988;-85
2022/06/11 11:56:43;;;;;;;2.47;1.20;;;;;;;22.13;55.01;97070.66;1738034;82;20935;-85
2022/06/11 11:59:17;;;;;;;1.87;1.22;;;;;;;22.19;54.97;97076.02;1724707;82;21440;-85
2022/06/11 12:01:44;;;;;;;2.75;1.25;;;;;;;22.20;53.71;97078.44;1738233;82;21027;-85